createdAt,value
2023-03-27T00:00:59.076Z,94281
2023-03-27T00:02:07.834Z,94282
2023-03-27T00:03:16.499Z,94288
2023-03-27T00:04:25.074Z,94278
2023-03-27T00:05:32.709Z,94286
2023-03-27T00:06:42.381Z,94281
2023-03-27T00:07:51.041Z,94283
2023-03-27T00:09:00.700Z,94283
2023-03-27T00:10:10.389Z,94286
2023-03-27T00:11:18.026Z,94289
2023-03-27T00:12:26.715Z,94294
2023-03-27T00:13:35.374Z,94288
2023-03-27T00:14:46.018Z,94294
2023-03-27T00:15:55.685Z,94290
2023-03-27T00:17:04.403Z,94286
2023-03-27T00:18:12.068Z,94288
2023-03-27T00:19:20.662Z,94290
2023-03-27T00:20:29.320Z,94285
2023-03-27T00:21:38.017Z,94286
2023-03-27T00:22:47.699Z,94286
2023-03-27T00:23:55.352Z,94282
2023-03-27T00:25:04.993Z,94285
2023-03-27T00:26:14.736Z,94293
2023-03-27T00:27:23.403Z,94285
2023-03-27T00:28:32.057Z,94286
2023-03-27T00:29:40.725Z,94282
2023-03-27T00:30:50.424Z,94286
2023-03-27T00:32:00.114Z,94286
2023-03-27T00:33:07.794Z,94288
2023-03-27T00:34:17.441Z,94285
2023-03-27T00:35:27.250Z,94281
2023-03-27T00:36:35.852Z,94281
2023-03-27T00:37:44.534Z,94283
2023-03-27T00:38:53.199Z,94282
2023-03-27T00:40:01.863Z,94280
2023-03-27T00:41:11.538Z,94283
2023-03-27T00:42:20.210Z,94287
2023-03-27T00:43:29.853Z,94284
2023-03-27T00:44:39.837Z,94284
2023-03-27T00:45:47.175Z,94282
2023-03-27T00:46:56.858Z,94283
2023-03-27T00:48:06.610Z,94289
2023-03-27T00:49:15.276Z,94284
2023-03-27T00:50:24.967Z,94287
2023-03-27T00:51:34.620Z,94288
2023-03-27T00:52:44.323Z,94288
2023-03-27T00:53:53.979Z,94287
2023-03-27T00:55:02.640Z,94288
2023-03-27T00:56:11.318Z,94288
2023-03-27T00:57:19.959Z,94287
2023-03-27T00:58:29.630Z,94289
2023-03-27T00:59:39.282Z,94288
2023-03-27T01:00:46.929Z,94294
2023-03-27T01:01:55.615Z,94294
2023-03-27T01:03:05.395Z,94295
2023-03-27T01:04:13.923Z,94292
2023-03-27T01:05:23.578Z,94291
2023-03-27T01:06:32.265Z,94288
2023-03-27T01:07:41.925Z,94286
2023-03-27T01:08:52.569Z,94279
2023-03-27T01:10:01.219Z,94286
2023-03-27T01:11:09.886Z,94292
2023-03-27T01:12:19.582Z,94288
2023-03-27T01:13:29.231Z,94286
2023-03-27T01:14:39.879Z,94286
2023-03-27T01:15:49.588Z,94289
2023-03-27T01:16:58.226Z,94288
2023-03-27T01:18:07.958Z,94287
2023-03-27T01:19:16.560Z,94284
2023-03-27T01:20:26.236Z,94282
2023-03-27T01:21:35.894Z,94284
2023-03-27T01:22:44.549Z,94285
2023-03-27T01:23:59.223Z,94284
2023-03-27T01:25:03.841Z,94280
2023-03-27T01:26:13.502Z,94284
2023-03-27T01:27:24.184Z,94285
2023-03-27T01:28:33.849Z,94282
2023-03-27T01:29:42.557Z,94289
2023-03-27T01:30:52.214Z,94286
2023-03-27T01:32:00.876Z,94284
2023-03-27T01:33:10.595Z,94284
2023-03-27T01:34:20.229Z,94288
2023-03-27T01:35:28.968Z,94294
2023-03-27T01:36:38.587Z,94280
2023-03-27T01:37:48.272Z,94286
2023-03-27T01:38:57.921Z,94286
2023-03-27T01:40:07.577Z,94283
2023-03-27T01:41:15.219Z,94286
2023-03-27T01:42:24.874Z,94286
2023-03-27T01:43:34.550Z,94292
2023-03-27T01:44:43.661Z,94290
2023-03-27T01:45:52.874Z,94295
2023-03-27T01:47:00.566Z,94283
2023-03-27T01:48:10.217Z,94286
2023-03-27T01:49:19.882Z,94287
2023-03-27T01:50:27.536Z,94287
2023-03-27T01:51:37.185Z,94288
2023-03-27T01:52:46.928Z,94291
2023-03-27T01:53:56.541Z,94289
2023-03-27T01:55:06.197Z,94284
2023-03-27T01:56:13.875Z,94286
2023-03-27T01:57:22.535Z,94287
2023-03-27T01:58:32.222Z,94291
2023-03-27T01:59:40.867Z,94290
2023-03-27T02:00:51.279Z,94303
2023-03-27T02:02:00.197Z,94290
2023-03-27T02:03:09.868Z,94304
2023-03-27T02:04:19.629Z,94302
2023-03-27T02:05:28.298Z,94295
2023-03-27T02:06:36.944Z,94298
2023-03-27T02:07:46.638Z,94302
2023-03-27T02:08:54.332Z,94303
2023-03-27T02:10:02.967Z,94307
2023-03-27T02:11:12.630Z,94295
2023-03-27T02:12:21.278Z,94301
2023-03-27T02:13:30.994Z,94301
2023-03-27T02:14:38.637Z,94296
2023-03-27T02:15:47.303Z,94303
2023-03-27T02:16:56.990Z,94304
2023-03-27T02:18:05.829Z,94308
2023-03-27T02:19:14.317Z,94305
2023-03-27T02:20:23.962Z,94307
2023-03-27T02:21:31.625Z,94302
2023-03-27T02:22:40.329Z,94314
2023-03-27T02:23:50.068Z,94318
2023-03-27T02:24:57.735Z,94303
2023-03-27T02:26:06.394Z,94304
2023-03-27T02:27:16.088Z,94306
2023-03-27T02:28:24.783Z,94311
2023-03-27T02:29:34.468Z,94312
2023-03-27T02:30:44.139Z,94305
2023-03-27T02:31:53.752Z,94306
2023-03-27T02:33:03.442Z,94318
2023-03-27T02:34:13.138Z,94312
2023-03-27T02:35:22.807Z,94314
2023-03-27T02:36:30.416Z,94319
2023-03-27T02:37:39.065Z,94318
2023-03-27T02:38:48.779Z,94318
2023-03-27T02:39:57.436Z,94320
2023-03-27T02:41:06.092Z,94319
2023-03-27T02:42:14.752Z,94317
2023-03-27T02:43:22.459Z,94322
2023-03-27T02:44:32.148Z,94324
2023-03-27T02:45:41.810Z,94321
2023-03-27T02:46:51.465Z,94327
2023-03-27T02:48:01.241Z,94323
2023-03-27T02:49:08.906Z,94328
2023-03-27T02:50:18.581Z,94331
2023-03-27T02:51:28.225Z,94335
2023-03-27T02:52:36.909Z,94326
2023-03-27T02:53:45.541Z,94328
2023-03-27T02:54:54.249Z,94329
2023-03-27T02:56:02.894Z,94331
2023-03-27T02:57:12.613Z,94331
2023-03-27T02:58:22.216Z,94332
2023-03-27T02:59:30.912Z,94334
2023-03-27T03:00:40.653Z,94331
2023-03-27T03:01:49.316Z,94332
2023-03-27T03:02:58.069Z,94341
2023-03-27T03:04:06.639Z,94340
2023-03-27T03:05:15.286Z,94344
2023-03-27T03:06:24.946Z,94343
2023-03-27T03:07:32.603Z,94348
2023-03-27T03:08:41.279Z,94345
2023-03-27T03:09:50.982Z,94342
2023-03-27T03:10:59.633Z,94340
2023-03-27T03:12:09.331Z,94353
2023-03-27T03:13:17.989Z,94346
2023-03-27T03:14:27.657Z,94351
2023-03-27T03:15:37.327Z,94348
2023-03-27T03:16:47.022Z,94350
2023-03-27T03:17:55.649Z,94352
2023-03-27T03:19:05.319Z,94354
2023-03-27T03:20:13.001Z,94353
2023-03-27T03:21:22.675Z,94352
2023-03-27T03:22:31.392Z,94350
2023-03-27T03:23:40.026Z,94352
2023-03-27T03:24:50.687Z,94348
2023-03-27T03:25:59.345Z,94361
2023-03-27T03:27:08.983Z,94358
2023-03-27T03:28:18.643Z,94353
2023-03-27T03:29:26.348Z,94355
2023-03-27T03:30:35.989Z,94358
2023-03-27T03:31:45.638Z,94371
2023-03-27T03:32:54.317Z,94372
2023-03-27T03:34:03.974Z,94369
2023-03-27T03:35:12.630Z,94377
2023-03-27T03:36:21.252Z,94375
2023-03-27T03:37:29.913Z,94374
2023-03-27T03:38:37.563Z,94367
2023-03-27T03:39:46.283Z,94374
2023-03-27T03:40:55.346Z,94366
2023-03-27T03:42:04.576Z,94368
2023-03-27T03:43:15.314Z,94373
2023-03-27T03:44:23.912Z,94367
2023-03-27T03:45:32.605Z,94378
2023-03-27T03:46:42.221Z,94377
2023-03-27T03:47:50.898Z,94380
2023-03-27T03:49:00.548Z,94380
2023-03-27T03:50:09.246Z,94393
2023-03-27T03:51:18.869Z,94381
2023-03-27T03:52:28.517Z,94386
2023-03-27T03:53:37.192Z,94392
2023-03-27T03:54:46.982Z,94390
2023-03-27T03:55:56.540Z,94395
2023-03-27T03:57:05.274Z,94393
2023-03-27T03:58:13.878Z,94402
2023-03-27T03:59:23.571Z,94397
2023-03-27T04:00:32.239Z,94402
2023-03-27T04:01:42.043Z,94408
2023-03-27T04:02:51.627Z,94405
2023-03-27T04:04:00.330Z,94406
2023-03-27T04:05:09.985Z,94418
2023-03-27T04:06:20.524Z,94416
2023-03-27T04:07:29.322Z,94411
2023-03-27T04:08:37.996Z,94421
2023-03-27T04:09:46.718Z,94416
2023-03-27T04:10:56.484Z,94429
2023-03-27T04:12:04.020Z,94433
2023-03-27T04:13:12.686Z,94429
2023-03-27T04:14:21.401Z,94428
2023-03-27T04:15:30.458Z,94431
2023-03-27T04:16:39.185Z,94429
2023-03-27T04:17:48.986Z,94429
2023-03-27T04:18:57.477Z,94438
2023-03-27T04:20:07.212Z,94430
2023-03-27T04:21:16.916Z,94423
2023-03-27T04:22:24.582Z,94423
2023-03-27T04:23:33.234Z,94424
2023-03-27T04:24:42.904Z,94427
2023-03-27T04:25:52.588Z,94426
2023-03-27T04:27:02.304Z,94426
2023-03-27T04:28:09.943Z,94426
2023-03-27T04:29:18.623Z,94423
2023-03-27T04:30:28.334Z,94432
2023-03-27T04:31:37.021Z,94435
2023-03-27T04:32:46.695Z,94435
2023-03-27T04:33:56.387Z,94440
2023-03-27T04:35:05.010Z,94435
2023-03-27T04:36:14.692Z,94437
2023-03-27T04:37:23.209Z,94439
2023-03-27T04:38:30.952Z,94441
2023-03-27T04:39:40.617Z,94446
2023-03-27T04:40:48.304Z,94448
2023-03-27T04:41:57.969Z,94455
2023-03-27T04:43:07.680Z,94456
2023-03-27T04:44:17.293Z,94461
2023-03-27T04:45:26.965Z,94462
2023-03-27T04:46:34.673Z,94465
2023-03-27T04:47:43.323Z,94467
2023-03-27T04:48:52.952Z,94468
2023-03-27T04:50:01.631Z,94467
2023-03-27T04:51:11.356Z,94474
2023-03-27T04:52:20.984Z,94478
2023-03-27T04:53:29.631Z,94471
2023-03-27T04:54:39.312Z,94476
2023-03-27T04:55:48.049Z,94492
2023-03-27T04:56:56.712Z,94495
2023-03-27T04:58:06.352Z,94495
2023-03-27T04:59:14.000Z,94497
2023-03-27T05:00:22.651Z,94506
2023-03-27T05:01:31.353Z,94505
2023-03-27T05:02:40.000Z,94501
2023-03-27T05:03:49.699Z,94507
2023-03-27T05:04:58.294Z,94515
2023-03-27T05:06:06.956Z,94514
2023-03-27T05:07:16.586Z,94519
2023-03-27T05:08:24.233Z,94522
2023-03-27T05:09:32.909Z,94520
2023-03-27T05:10:41.621Z,94531
2023-03-27T05:11:51.324Z,94527
2023-03-27T05:13:00.990Z,94540
2023-03-27T05:14:10.639Z,94544
2023-03-27T05:15:19.280Z,94539
2023-03-27T05:16:29.002Z,94533
2023-03-27T05:17:36.669Z,94547
2023-03-27T05:18:45.287Z,94552
2023-03-27T05:19:53.949Z,94557
2023-03-27T05:21:03.655Z,94562
2023-03-27T05:22:13.354Z,94559
2023-03-27T05:23:23.005Z,94562
2023-03-27T05:24:31.677Z,94569
2023-03-27T05:25:41.370Z,94569
2023-03-27T05:26:51.050Z,94573
2023-03-27T05:27:59.765Z,94571
2023-03-27T05:29:08.358Z,94580
2023-03-27T05:30:17.033Z,94594
2023-03-27T05:31:25.739Z,94586
2023-03-27T05:32:33.369Z,94595
2023-03-27T05:33:42.036Z,94596
2023-03-27T05:34:51.679Z,94595
2023-03-27T05:35:59.463Z,94603
2023-03-27T05:37:09.046Z,94606
2023-03-27T05:38:17.735Z,94608
2023-03-27T05:39:26.395Z,94617
2023-03-27T05:40:36.126Z,94616
2023-03-27T05:41:45.848Z,94623
2023-03-27T05:42:54.510Z,94630
2023-03-27T05:44:04.179Z,94611
2023-03-27T05:45:11.835Z,94624
2023-03-27T05:46:22.043Z,94634
2023-03-27T05:47:30.611Z,94654
2023-03-27T05:48:40.267Z,94650
2023-03-27T05:49:49.935Z,94659
2023-03-27T05:50:58.675Z,94643
2023-03-27T05:52:07.279Z,94648
2023-03-27T05:53:16.936Z,94665
2023-03-27T05:54:26.596Z,94673
2023-03-27T05:55:36.285Z,94669
2023-03-27T05:56:44.989Z,94683
2023-03-27T05:57:53.652Z,94680
2023-03-27T05:59:03.358Z,94695
2023-03-27T06:00:12.035Z,94687
2023-03-27T06:01:21.706Z,94698
2023-03-27T06:02:31.425Z,94700
2023-03-27T06:03:39.297Z,94702
2023-03-27T06:04:47.776Z,94715
2023-03-27T06:05:57.451Z,94712
2023-03-27T06:07:07.149Z,94715
2023-03-27T06:08:16.829Z,94744
2023-03-27T06:09:26.496Z,94725
2023-03-27T06:10:36.189Z,94740
2023-03-27T06:11:45.873Z,94730
2023-03-27T06:12:55.540Z,94743
2023-03-27T06:14:05.202Z,94751
2023-03-27T06:15:14.878Z,94752
2023-03-27T06:16:24.578Z,94743
2023-03-27T06:17:33.367Z,94749
2023-03-27T06:18:43.021Z,94761
2023-03-27T06:19:51.708Z,94766
2023-03-27T06:21:01.450Z,94776
2023-03-27T06:22:10.104Z,94773
2023-03-27T06:23:18.771Z,94776
2023-03-27T06:24:28.435Z,94780
2023-03-27T06:25:36.073Z,94784
2023-03-27T06:26:44.849Z,94782
2023-03-27T06:27:54.469Z,94787
2023-03-27T06:29:07.898Z,94798
2023-03-27T06:30:11.748Z,94807
2023-03-27T06:31:20.505Z,94807
2023-03-27T06:32:30.181Z,94807
2023-03-27T06:33:39.843Z,94815
2023-03-27T06:34:48.484Z,94811
2023-03-27T06:35:57.239Z,94818
2023-03-27T06:37:06.821Z,94824
2023-03-27T06:38:15.486Z,94827
2023-03-27T06:39:24.146Z,94839
2023-03-27T06:40:32.876Z,94832
2023-03-27T06:41:41.486Z,94835
2023-03-27T06:42:51.331Z,94843
2023-03-27T06:44:01.060Z,94853
2023-03-27T06:45:09.741Z,94852
2023-03-27T06:46:19.521Z,94855
2023-03-27T06:47:30.167Z,94861
2023-03-27T06:48:39.806Z,94859
2023-03-27T06:49:48.483Z,94867
2023-03-27T06:50:57.391Z,94872
2023-03-27T06:52:06.944Z,94882
2023-03-27T06:53:23.902Z,94891
2023-03-27T06:54:25.351Z,94886
2023-03-27T06:55:35.069Z,94892
2023-03-27T06:56:43.720Z,94901
2023-03-27T06:57:53.447Z,94899
2023-03-27T06:59:03.083Z,94902
2023-03-27T07:00:11.764Z,94914
2023-03-27T07:01:21.440Z,94915
2023-03-27T07:02:30.197Z,94909
2023-03-27T07:03:38.778Z,94921
2023-03-27T07:04:58.055Z,94917
2023-03-27T07:05:59.231Z,94919
2023-03-27T07:07:07.778Z,94927
2023-03-27T07:09:27.107Z,94932
2023-03-27T07:10:36.771Z,94936
2023-03-27T07:11:44.422Z,94941
2023-03-27T07:12:54.157Z,94945
2023-03-27T07:14:03.846Z,94943
2023-03-27T07:15:12.479Z,94942
2023-03-27T07:16:22.166Z,94949
2023-03-27T07:17:42.035Z,94956
2023-03-27T07:18:41.474Z,94949
2023-03-27T07:19:51.128Z,94959
2023-03-27T07:21:00.025Z,94962
2023-03-27T07:22:08.421Z,94963
2023-03-27T07:23:18.088Z,94971
2023-03-27T07:24:25.749Z,94970
2023-03-27T07:25:34.442Z,94968
2023-03-27T07:26:43.194Z,94973
2023-03-27T07:27:52.870Z,94975
2023-03-27T07:29:02.555Z,94983
2023-03-27T07:30:10.259Z,94975
2023-03-27T07:31:32.988Z,94995
2023-03-27T07:32:36.921Z,94995
2023-03-27T07:33:41.266Z,94992
2023-03-27T07:34:49.875Z,95005
2023-03-27T07:35:58.775Z,95008
2023-03-27T07:37:07.205Z,95003
2023-03-27T07:38:16.935Z,95020
2023-03-27T07:39:24.609Z,95010
2023-03-27T07:40:39.773Z,95014
2023-03-27T07:41:44.785Z,95028
2023-03-27T07:42:53.494Z,95023
2023-03-27T07:44:03.161Z,95022
2023-03-27T07:45:11.810Z,95028
2023-03-27T07:46:20.534Z,95035
2023-03-27T07:47:30.189Z,95037
2023-03-27T07:48:38.983Z,95036
2023-03-27T07:49:47.662Z,95046
2023-03-27T07:51:00.692Z,95043
2023-03-27T07:52:07.952Z,95048
2023-03-27T07:53:33.168Z,95048
2023-03-27T07:54:29.270Z,95055
2023-03-27T07:55:38.107Z,95058
2023-03-27T07:56:46.677Z,95057
2023-03-27T07:58:01.250Z,95064
2023-03-27T07:59:02.914Z,95068
2023-03-27T08:00:12.723Z,95070
2023-03-27T08:01:22.377Z,95078
2023-03-27T08:02:30.183Z,95073
2023-03-27T08:03:39.845Z,95073
2023-03-27T08:04:49.505Z,95080
2023-03-27T08:05:59.370Z,95089
2023-03-27T08:07:08.928Z,95081
2023-03-27T08:08:18.607Z,95092
2023-03-27T08:09:28.260Z,95092
2023-03-27T08:10:36.920Z,95090
2023-03-27T08:11:46.582Z,95096
2023-03-27T08:12:57.183Z,95108
2023-03-27T08:14:05.991Z,95110
2023-03-27T08:15:14.661Z,95106
2023-03-27T08:16:23.300Z,95115
2023-03-27T08:17:32.118Z,95112
2023-03-27T08:18:40.693Z,95119
2023-03-27T08:19:50.376Z,95124
2023-03-27T08:20:59.054Z,95129
2023-03-27T08:22:08.715Z,95130
2023-03-27T08:23:17.438Z,95133
2023-03-27T08:24:27.150Z,95132
2023-03-27T08:25:36.839Z,95135
2023-03-27T08:26:45.611Z,95141
2023-03-27T08:27:54.322Z,95138
2023-03-27T08:29:03.034Z,95145
2023-03-27T08:30:11.731Z,95155
2023-03-27T08:31:21.498Z,95152
2023-03-27T08:32:29.201Z,95159
2023-03-27T08:33:38.842Z,95166
2023-03-27T08:34:47.492Z,95162
2023-03-27T08:35:55.343Z,95167
2023-03-27T08:37:03.940Z,95173
2023-03-27T08:38:24.058Z,95174
2023-03-27T08:39:22.408Z,95184
2023-03-27T08:40:32.072Z,95176
2023-03-27T08:41:39.766Z,95179
2023-03-27T08:42:48.462Z,95177
2023-03-27T08:43:58.451Z,95180
2023-03-27T08:45:07.197Z,95184
2023-03-27T08:46:15.885Z,95182
2023-03-27T08:47:24.570Z,95186
2023-03-27T08:48:33.204Z,95192
2023-03-27T08:49:42.898Z,95197
2023-03-27T08:50:51.539Z,95193
2023-03-27T08:52:00.197Z,95199
2023-03-27T08:53:09.864Z,95201
2023-03-27T08:54:17.629Z,95209
2023-03-27T08:55:26.264Z,95214
2023-03-27T08:56:34.909Z,95208
2023-03-27T08:57:44.736Z,95214
2023-03-27T08:58:53.414Z,95219
2023-03-27T09:00:02.088Z,95221
2023-03-27T09:01:11.751Z,95230
2023-03-27T09:02:21.435Z,95234
2023-03-27T09:03:30.245Z,95240
2023-03-27T09:04:39.784Z,95239
2023-03-27T09:05:49.458Z,95241
2023-03-27T09:06:59.075Z,95238
2023-03-27T09:08:08.746Z,95234
2023-03-27T09:09:17.423Z,95244
2023-03-27T09:10:25.242Z,95243
2023-03-27T09:11:34.899Z,95250
2023-03-27T09:12:43.560Z,95247
2023-03-27T09:13:53.282Z,95246
2023-03-27T09:15:02.011Z,95257
2023-03-27T09:16:10.655Z,95251
2023-03-27T09:17:20.305Z,95260
2023-03-27T09:18:27.968Z,95257
2023-03-27T09:19:36.712Z,95268
2023-03-27T09:20:46.365Z,95267
2023-03-27T09:21:54.045Z,95266
2023-03-27T09:23:03.740Z,95265
2023-03-27T09:24:12.434Z,95274
2023-03-27T09:25:22.101Z,95261
2023-03-27T09:26:30.782Z,95273
2023-03-27T09:27:39.423Z,95280
2023-03-27T09:28:49.072Z,95284
2023-03-27T09:30:05.239Z,95280
2023-03-27T09:31:09.479Z,95289
2023-03-27T09:32:19.209Z,95285
2023-03-27T09:33:27.885Z,95287
2023-03-27T09:34:36.572Z,95291
2023-03-27T09:35:46.267Z,95286
2023-03-27T09:36:54.917Z,95283
2023-03-27T09:38:05.680Z,95290
2023-03-27T09:39:15.271Z,95290
2023-03-27T09:40:23.945Z,95296
2023-03-27T09:41:31.726Z,95300
2023-03-27T09:42:41.322Z,95301
2023-03-27T09:43:51.029Z,95302
2023-03-27T09:45:02.365Z,95298
2023-03-27T09:46:11.021Z,95306
2023-03-27T09:47:20.673Z,95309
2023-03-27T09:48:30.329Z,95307
2023-03-27T09:49:38.002Z,95304
2023-03-27T09:50:46.721Z,95308
2023-03-27T09:51:56.370Z,95306
2023-03-27T09:53:06.045Z,95307
2023-03-27T09:54:15.742Z,95307
2023-03-27T09:55:24.479Z,95319
2023-03-27T09:56:33.142Z,95314
2023-03-27T09:57:42.798Z,95313
2023-03-27T09:58:52.463Z,95307
2023-03-27T10:00:01.480Z,95311
2023-03-27T10:01:09.147Z,95319
2023-03-27T10:02:17.794Z,95318
2023-03-27T10:03:27.507Z,95315
2023-03-27T10:04:37.134Z,95317
2023-03-27T10:05:45.799Z,95328
2023-03-27T10:06:55.462Z,95326
2023-03-27T10:08:03.130Z,95327
2023-03-27T10:09:11.804Z,95329
2023-03-27T10:10:21.530Z,95328
2023-03-27T10:11:30.202Z,95333
2023-03-27T10:12:39.917Z,95336
2023-03-27T10:13:49.601Z,95336
2023-03-27T10:14:58.308Z,95336
2023-03-27T10:16:06.972Z,95344
2023-03-27T10:17:16.610Z,95352
2023-03-27T10:18:26.264Z,95354
2023-03-27T10:19:34.980Z,95343
2023-03-27T10:20:43.780Z,95350
2023-03-27T10:21:52.380Z,95352
2023-03-27T10:23:02.113Z,95359
2023-03-27T10:24:10.707Z,95351
2023-03-27T10:25:19.419Z,95353
2023-03-27T10:26:28.084Z,95355
2023-03-27T10:27:36.750Z,95359
2023-03-27T10:28:46.393Z,95358
2023-03-27T10:29:54.059Z,95363
2023-03-27T10:31:02.425Z,95371
2023-03-27T10:32:12.141Z,95368
2023-03-27T10:33:21.771Z,95382
2023-03-27T10:34:31.421Z,95374
2023-03-27T10:35:41.140Z,95372
2023-03-27T10:36:50.795Z,95378
2023-03-27T10:38:00.490Z,95376
2023-03-27T10:39:08.213Z,95377
2023-03-27T10:40:17.923Z,95385
2023-03-27T10:41:28.199Z,95384
2023-03-27T10:42:36.297Z,95385
2023-03-27T10:43:45.940Z,95391
2023-03-27T10:44:54.596Z,95398
2023-03-27T10:46:02.356Z,95390
2023-03-27T10:47:11.966Z,95394
2023-03-27T10:48:20.683Z,95394
2023-03-27T10:49:30.394Z,95396
2023-03-27T10:50:40.126Z,95397
2023-03-27T10:51:47.791Z,95397
2023-03-27T10:52:56.478Z,95395
2023-03-27T10:54:06.129Z,95394
2023-03-27T10:55:14.759Z,95401
2023-03-27T10:56:24.432Z,95396
2023-03-27T10:57:33.137Z,95406
2023-03-27T10:58:42.852Z,95401
2023-03-27T10:59:53.553Z,95409
2023-03-27T11:01:03.311Z,95405
2023-03-27T11:02:12.955Z,95409
2023-03-27T11:03:22.637Z,95409
2023-03-27T11:04:31.300Z,95412
2023-03-27T11:05:41.047Z,95405
2023-03-27T11:06:50.772Z,95410
2023-03-27T11:07:59.443Z,95413
2023-03-27T11:09:09.105Z,95418
2023-03-27T11:10:16.761Z,95427
2023-03-27T11:11:25.449Z,95426
2023-03-27T11:12:34.107Z,95424
2023-03-27T11:13:43.769Z,95424
2023-03-27T11:14:53.619Z,95424
2023-03-27T11:16:02.200Z,95435
2023-03-27T11:17:10.861Z,95424
2023-03-27T11:18:19.559Z,95432
2023-03-27T11:19:28.269Z,95444
2023-03-27T11:20:36.926Z,95433
2023-03-27T11:21:45.607Z,95436
2023-03-27T11:22:54.290Z,95435
2023-03-27T11:24:03.992Z,95433
2023-03-27T11:25:11.591Z,95431
2023-03-27T11:26:20.308Z,95441
2023-03-27T11:27:29.971Z,95439
2023-03-27T11:28:39.685Z,95431
2023-03-27T11:29:48.329Z,95440
2023-03-27T11:30:57.361Z,95441
2023-03-27T11:32:06.645Z,95434
2023-03-27T11:33:16.337Z,95438
2023-03-27T11:34:29.214Z,95453
2023-03-27T11:35:33.700Z,95446
2023-03-27T11:36:43.332Z,95444
2023-03-27T11:37:52.092Z,95442
2023-03-27T11:39:01.756Z,95446
2023-03-27T11:40:10.423Z,95446
2023-03-27T11:41:19.130Z,95447
2023-03-27T11:42:28.817Z,95457
2023-03-27T11:43:36.512Z,95452
2023-03-27T11:44:46.171Z,95449
2023-03-27T11:45:55.876Z,95462
2023-03-27T11:47:03.565Z,95455
2023-03-27T11:48:13.242Z,95455
2023-03-27T11:49:22.877Z,95456
2023-03-27T11:50:31.518Z,95458
2023-03-27T11:51:41.214Z,95459
2023-03-27T11:52:48.881Z,95453
2023-03-27T11:53:57.555Z,95457
2023-03-27T11:55:07.202Z,95463
2023-03-27T11:56:14.855Z,95457
2023-03-27T11:57:23.558Z,95452
2023-03-27T11:58:33.332Z,95461
2023-03-27T11:59:42.892Z,95461
2023-03-27T12:00:52.565Z,95455
2023-03-27T12:02:00.263Z,95456
2023-03-27T12:03:10.060Z,95451
2023-03-27T12:04:18.628Z,95449
2023-03-27T12:05:28.270Z,95445
2023-03-27T12:06:36.959Z,95456
2023-03-27T12:07:47.805Z,95444
2023-03-27T12:08:55.342Z,95450
2023-03-27T12:10:04.984Z,95458
2023-03-27T12:11:14.657Z,95454
2023-03-27T12:12:24.354Z,95469
2023-03-27T12:13:41.012Z,95472
2023-03-27T12:14:46.043Z,95474
2023-03-27T12:15:54.339Z,95487
2023-03-27T12:17:04.032Z,95484
2023-03-27T12:18:12.712Z,95480
2023-03-27T12:20:33.001Z,95488
2023-03-27T12:21:42.654Z,95488
2023-03-27T12:22:52.347Z,95484
2023-03-27T12:24:01.033Z,95482
2023-03-27T12:25:09.701Z,95478
2023-03-27T12:26:19.379Z,95484
2023-03-27T12:27:27.073Z,95482
2023-03-27T12:28:35.723Z,95486
2023-03-27T12:29:45.409Z,95478
2023-03-27T12:30:53.063Z,95478
2023-03-27T12:32:02.806Z,95472
2023-03-27T12:33:11.435Z,95474
2023-03-27T12:34:21.122Z,95469
2023-03-27T12:35:30.812Z,95479
2023-03-27T12:36:39.445Z,95478
2023-03-27T12:37:49.160Z,95470
2023-03-27T12:38:58.798Z,95488
2023-03-27T12:40:07.541Z,95481
2023-03-27T12:41:17.198Z,95482
2023-03-27T12:42:25.888Z,95481
2023-03-27T12:43:36.607Z,95486
2023-03-27T12:44:46.264Z,95483
2023-03-27T12:45:53.915Z,95485
2023-03-27T12:47:03.587Z,95494
2023-03-27T12:48:13.269Z,95507
2023-03-27T12:49:20.977Z,95498
2023-03-27T12:50:30.679Z,95495
2023-03-27T12:51:40.336Z,95500
2023-03-27T12:52:49.039Z,95507
2023-03-27T12:53:57.772Z,95494
2023-03-27T12:55:06.501Z,95497
2023-03-27T12:56:15.164Z,95493
2023-03-27T12:57:24.999Z,95498
2023-03-27T12:58:33.535Z,95498
2023-03-27T12:59:43.181Z,95499
2023-03-27T13:00:52.836Z,95498
2023-03-27T13:02:01.538Z,95496
2023-03-27T13:03:10.315Z,95501
2023-03-27T13:04:20.007Z,95509
2023-03-27T13:05:28.705Z,95500
2023-03-27T13:06:38.443Z,95503
2023-03-27T13:07:47.227Z,95513
2023-03-27T13:08:56.896Z,95509
2023-03-27T13:10:06.626Z,95508
2023-03-27T13:11:15.280Z,95510
2023-03-27T13:12:23.918Z,95512
2023-03-27T13:13:33.729Z,95519
2023-03-27T13:14:43.380Z,95511
2023-03-27T13:15:53.172Z,95510
2023-03-27T13:17:01.738Z,95507
2023-03-27T13:18:09.456Z,95517
2023-03-27T13:19:19.111Z,95519
2023-03-27T13:20:27.760Z,95516
2023-03-27T13:21:37.416Z,95505
2023-03-27T13:22:46.096Z,95514
2023-03-27T13:23:54.759Z,95520
2023-03-27T13:25:04.422Z,95522
2023-03-27T13:26:13.066Z,95523
2023-03-27T13:27:21.803Z,95526
2023-03-27T13:28:30.505Z,95525
2023-03-27T13:29:38.170Z,95526
2023-03-27T13:30:46.917Z,95530
2023-03-27T13:31:56.490Z,95528
2023-03-27T13:34:15.994Z,95537
2023-03-27T13:35:23.685Z,95535
2023-03-27T13:36:32.363Z,95535
2023-03-27T13:37:42.107Z,95534
2023-03-27T13:38:50.815Z,95536
2023-03-27T13:39:59.462Z,95533
2023-03-27T13:41:09.100Z,95541
2023-03-27T13:42:17.755Z,95543
2023-03-27T13:43:27.420Z,95550
2023-03-27T13:44:37.162Z,95548
2023-03-27T13:45:46.856Z,95546
2023-03-27T13:46:56.518Z,95549
2023-03-27T13:48:05.190Z,95549
2023-03-27T13:49:15.854Z,95543
2023-03-27T13:50:24.549Z,95539
2023-03-27T13:51:33.217Z,95540
2023-03-27T13:52:42.892Z,95541
2023-03-27T13:53:51.597Z,95546
2023-03-27T13:55:01.340Z,95548
2023-03-27T13:56:11.013Z,95544
2023-03-27T13:57:19.723Z,95547
2023-03-27T13:58:28.360Z,95550
2023-03-27T13:59:38.451Z,95557
2023-03-27T14:00:47.182Z,95551
2023-03-27T14:01:56.916Z,95557
2023-03-27T14:03:06.669Z,95570
2023-03-27T14:04:16.246Z,95565
2023-03-27T14:05:23.922Z,95569
2023-03-27T14:06:32.595Z,95558
2023-03-27T14:07:41.253Z,95565
2023-03-27T14:08:50.887Z,95566
2023-03-27T14:09:58.596Z,95564
2023-03-27T14:11:09.053Z,95554
2023-03-27T14:12:17.947Z,95559
2023-03-27T14:13:26.856Z,95577
2023-03-27T14:14:35.516Z,95555
2023-03-27T14:15:45.205Z,95553
2023-03-27T14:16:53.871Z,95559
2023-03-27T14:18:03.552Z,95572
2023-03-27T14:19:12.250Z,95576
2023-03-27T14:20:20.934Z,95592
2023-03-27T14:21:38.151Z,95582
2023-03-27T14:22:41.247Z,95581
2023-03-27T14:23:49.896Z,95593
2023-03-27T14:24:59.600Z,95592
2023-03-27T14:26:08.304Z,95608
2023-03-27T14:27:17.982Z,95595
2023-03-27T14:28:27.686Z,95603
2023-03-27T14:29:36.369Z,95597
2023-03-27T14:30:46.031Z,95592
2023-03-27T14:31:55.750Z,95604
2023-03-27T14:33:05.393Z,95599
2023-03-27T14:34:14.060Z,95606
2023-03-27T14:35:23.790Z,95609
2023-03-27T14:36:33.431Z,95613
2023-03-27T14:37:42.096Z,95627
2023-03-27T14:38:51.754Z,95630
2023-03-27T14:40:01.436Z,95619
2023-03-27T14:41:10.109Z,95614
2023-03-27T14:42:20.670Z,95627
2023-03-27T14:43:30.434Z,95631
2023-03-27T14:44:39.096Z,95633
2023-03-27T14:45:48.870Z,95641
2023-03-27T14:46:58.509Z,95641
2023-03-27T14:48:07.223Z,95645
2023-03-27T14:49:16.819Z,95669
2023-03-27T14:50:26.508Z,95643
2023-03-27T14:51:35.146Z,95650
2023-03-27T14:52:44.804Z,95631
2023-03-27T14:53:54.460Z,95645